createdAt,value
2018-12-25T00:01:19.674Z,95.20
2018-12-25T00:04:00.926Z,95.30
2018-12-25T00:12:38.253Z,95.30
2018-12-25T00:15:26.298Z,95.40
2018-12-25T00:20:48.574Z,95.10
2018-12-25T00:32:45.603Z,95.20
2018-12-25T00:35:27.205Z,95.00
2018-12-25T00:53:31.068Z,99.90
2018-12-25T01:02:16.169Z,94.80
2018-12-25T01:07:49.643Z,94.40
2018-12-25T01:14:03.682Z,94.00
2018-12-25T01:34:37.886Z,94.80
2018-12-25T01:43:27.502Z,94.80
2018-12-25T02:06:54.003Z,95.70
2018-12-25T02:18:21.176Z,96.30
2018-12-25T02:24:35.405Z,96.50
2018-12-25T02:33:05.110Z,99.90
2018-12-25T02:50:31.777Z,99.90
2018-12-25T02:53:13.639Z,99.90
2018-12-25T02:55:54.809Z,98.30
2018-12-25T02:58:36.490Z,97.60
2018-12-25T03:07:28.030Z,97.80
2018-12-25T03:16:07.573Z,97.80
2018-12-25T03:18:49.478Z,97.80
2018-12-25T03:21:31.239Z,99.90
2018-12-25T03:24:13.219Z,99.90
2018-12-25T03:44:50.307Z,99.90
2018-12-25T03:47:31.485Z,99.80
2018-12-25T03:50:13.343Z,99.90
2018-12-25T04:11:08.198Z,99.30
2018-12-25T04:14:09.071Z,99.40
2018-12-25T04:16:49.236Z,99.90
2018-12-25T05:30:43.430Z,98.60
2018-12-25T05:57:10.493Z,98.70
2018-12-25T06:05:50.205Z,98.30
2018-12-25T06:20:24.019Z,98.30
2018-12-25T06:56:05.929Z,97.40
2018-12-25T06:58:47.901Z,96.40
2018-12-25T07:10:32.669Z,97.10
2018-12-25T07:19:20.545Z,95.70
2018-12-25T07:24:54.185Z,96.60
2018-12-25T07:31:07.876Z,96.50
2018-12-25T08:50:49.145Z,95.20
2018-12-25T08:59:42.416Z,95.90
2018-12-25T09:11:20.573Z,95.50
2018-12-25T09:53:20.265Z,94.60
2018-12-25T10:05:31.239Z,96.20
2018-12-25T10:14:19.380Z,95.60
2018-12-25T10:17:00.743Z,92.00
2018-12-25T10:25:48.964Z,95.80
2018-12-25T10:34:27.039Z,91.20
2018-12-25T10:52:28.336Z,94.80
2018-12-25T11:12:19.900Z,95.20
2018-12-25T11:20:59.404Z,95.10
2018-12-25T11:38:50.113Z,91.40
2018-12-25T11:47:30.046Z,94.50
2018-12-25T12:37:30.039Z,92.90
2018-12-25T13:22:08.950Z,93.80
2018-12-25T13:41:00.173Z,90.20
2018-12-25T13:43:30.060Z,90.50
2018-12-25T13:46:07.479Z,90.60
2018-12-25T13:48:37.661Z,90.90
2018-12-25T13:53:37.390Z,91.10
2018-12-25T13:56:09.176Z,91.10
2018-12-25T13:58:39.074Z,91.50
2018-12-25T14:01:09.169Z,91.80
2018-12-25T14:03:39.119Z,91.70
2018-12-25T14:06:09.074Z,91.90
2018-12-25T14:11:08.437Z,92.90
2018-12-25T14:13:38.381Z,93.00
2018-12-25T14:16:08.234Z,94.60
2018-12-25T14:18:38.208Z,96.30
2018-12-25T14:21:08.108Z,94.90
2018-12-25T14:23:37.980Z,97.10
2018-12-25T14:38:34.117Z,96.10
2018-12-25T14:43:33.256Z,95.70
2018-12-25T14:46:04.935Z,96.10
2018-12-25T14:48:34.810Z,95.90
2018-12-25T14:56:03.170Z,96.10
2018-12-25T14:58:33.333Z,95.20
2018-12-25T15:01:03.319Z,95.70
2018-12-25T15:13:30.181Z,93.70
2018-12-25T15:16:00.049Z,94.20
2018-12-25T15:28:28.293Z,96.70
2018-12-25T15:33:27.498Z,95.60
2018-12-25T15:35:57.449Z,95.50
2018-12-25T15:38:27.387Z,95.90
2018-12-25T15:45:55.829Z,98.40
2018-12-25T15:50:54.957Z,98.70
2018-12-25T15:55:54.009Z,98.40
2018-12-25T15:58:26.987Z,96.50
2018-12-25T16:03:26.415Z,97.70
2018-12-25T16:05:56.399Z,97.80
2018-12-25T16:15:54.579Z,98.00
2018-12-25T16:25:52.402Z,98.40
2018-12-25T16:30:51.588Z,98.40
2018-12-25T16:33:21.542Z,98.90
2018-12-25T16:38:20.617Z,98.90
2018-12-25T16:40:50.545Z,99.30
2018-12-25T16:48:18.972Z,99.80
2018-12-25T16:50:49.629Z,97.30
2018-12-25T16:55:48.968Z,99.60
2018-12-25T16:58:19.028Z,97.50
2018-12-25T17:05:50.081Z,99.80
2018-12-25T17:08:20.180Z,99.90
2018-12-25T17:10:50.209Z,99.90
2018-12-25T17:13:20.170Z,99.90
2018-12-25T17:15:50.084Z,99.90
2018-12-25T17:20:50.224Z,99.60
2018-12-25T17:25:49.372Z,99.90
2018-12-25T17:28:27.637Z,99.90
2018-12-25T17:33:20.437Z,99.90
2018-12-25T17:38:19.533Z,99.90
2018-12-25T17:40:49.409Z,99.90
2018-12-25T17:48:18.065Z,99.90
2018-12-25T17:50:49.793Z,99.90
2018-12-25T18:03:17.089Z,99.90
2018-12-25T18:05:47.333Z,99.90
2018-12-25T18:10:50.453Z,99.90
2018-12-25T18:15:50.024Z,99.90
2018-12-25T18:18:20.019Z,99.90
2018-12-25T18:20:50.037Z,99.90
2018-12-25T18:23:19.940Z,99.90
2018-12-25T18:30:48.235Z,99.90
2018-12-25T18:33:18.422Z,99.90
2018-12-25T18:38:17.624Z,99.90
2018-12-25T18:43:16.854Z,99.90
2018-12-25T18:45:46.823Z,99.00
2018-12-25T18:53:15.755Z,99.90
2018-12-25T18:58:14.941Z,99.90
2018-12-25T19:00:44.886Z,99.90
2018-12-25T19:03:14.890Z,99.90
2018-12-25T19:05:44.838Z,99.90
2018-12-25T19:08:14.758Z,99.90
2018-12-25T19:10:44.620Z,99.90
2018-12-25T19:15:45.285Z,98.60
2018-12-25T19:25:43.297Z,99.90
2018-12-25T19:33:11.722Z,99.90
2018-12-25T19:35:41.712Z,99.90
2018-12-25T19:38:11.640Z,99.90
2018-12-25T19:40:41.578Z,99.50
2018-12-25T19:45:41.117Z,99.90
2018-12-25T19:50:40.226Z,99.90
2018-12-25T19:53:10.159Z,99.90
2018-12-25T19:55:40.129Z,99.90
2018-12-25T19:58:09.980Z,99.30
2018-12-25T20:03:26.353Z,99.30
2018-12-25T20:09:18.313Z,99.90
2018-12-25T20:12:28.298Z,99.90
2018-12-25T20:15:25.933Z,99.70
2018-12-25T20:24:19.329Z,99.90
2018-12-25T20:27:13.646Z,99.90
2018-12-25T20:30:23.509Z,99.90
2018-12-25T20:33:19.835Z,99.90
2018-12-25T20:39:34.567Z,99.90
2018-12-25T20:42:57.469Z,99.90
2018-12-25T20:48:39.085Z,99.90
2018-12-25T20:52:11.030Z,99.90
2018-12-25T21:15:20.584Z,99.90
2018-12-25T21:18:26.287Z,99.90
2018-12-25T21:24:29.829Z,99.90
2018-12-25T21:29:47.216Z,99.90
2018-12-25T21:42:14.870Z,99.90
2018-12-25T21:49:47.353Z,99.90
2018-12-25T21:52:17.497Z,99.90
2018-12-25T21:54:47.746Z,99.90
2018-12-25T22:02:16.769Z,99.90
2018-12-25T22:04:47.283Z,99.90
2018-12-25T22:07:20.061Z,99.90
2018-12-25T22:09:50.027Z,99.90
2018-12-25T22:12:19.890Z,99.90
2018-12-25T22:14:49.797Z,99.90
2018-12-25T22:17:19.965Z,99.90
2018-12-25T22:19:50.215Z,99.90
2018-12-25T22:27:18.561Z,99.90
2018-12-25T22:29:48.474Z,99.90
2018-12-25T22:32:19.534Z,99.90
2018-12-25T22:34:49.610Z,99.90
2018-12-25T22:37:19.585Z,99.90
2018-12-25T22:39:49.517Z,99.90
2018-12-25T22:44:48.886Z,99.90
2018-12-25T22:49:48.117Z,99.90
2018-12-25T22:52:18.010Z,99.90
2018-12-25T23:02:15.909Z,99.90
2018-12-25T23:04:45.821Z,99.90
2018-12-25T23:14:43.529Z,99.90
2018-12-25T23:19:42.955Z,99.90
2018-12-25T23:27:11.913Z,99.90
2018-12-25T23:29:42.198Z,99.50
2018-12-25T23:37:10.501Z,99.90
2018-12-25T23:39:40.377Z,99.90
2018-12-25T23:44:39.802Z,99.90
2018-12-25T23:57:08.245Z,99.90
2018-12-25T23:59:38.223Z,99.10
